sensor_id;sensor_type;location;lat;lon;timestamp;P1;durP1;ratioP1;P2;durP2;ratioP2
32639;SDS011;19049;52.524;11.468;2023-01-29T00:02:19;16.03;;;10.27;;
32639;SDS011;19049;52.524;11.468;2023-01-29T00:04:45;17.33;;;9.47;;
32639;SDS011;19049;52.524;11.468;2023-01-29T00:07:11;16.60;;;9.97;;
32639;SDS011;19049;52.524;11.468;2023-01-29T00:09:37;17.37;;;10.30;;
32639;SDS011;19049;52.524;11.468;2023-01-29T00:12:04;17.73;;;11.27;;
32639;SDS011;19049;52.524;11.468;2023-01-29T00:14:32;17.90;;;10.80;;
32639;SDS011;19049;52.524;11.468;2023-01-29T00:16:59;17.13;;;11.00;;
32639;SDS011;19049;52.524;11.468;2023-01-29T00:19:25;18.53;;;10.40;;
32639;SDS011;19049;52.524;11.468;2023-01-29T00:21:51;19.13;;;11.47;;
32639;SDS011;19049;52.524;11.468;2023-01-29T00:24:17;19.40;;;11.50;;
32639;SDS011;19049;52.524;11.468;2023-01-29T00:26:43;16.30;;;9.80;;
32639;SDS011;19049;52.524;11.468;2023-01-29T00:29:09;14.03;;;9.17;;
32639;SDS011;19049;52.524;11.468;2023-01-29T00:31:34;13.93;;;8.63;;
32639;SDS011;19049;52.524;11.468;2023-01-29T00:34:00;12.00;;;7.73;;
32639;SDS011;19049;52.524;11.468;2023-01-29T00:36:27;13.87;;;9.80;;
32639;SDS011;19049;52.524;11.468;2023-01-29T00:38:54;20.27;;;11.30;;
32639;SDS011;19049;52.524;11.468;2023-01-29T00:41:30;16.27;;;10.40;;
32639;SDS011;19049;52.524;11.468;2023-01-29T00:44:15;18.90;;;11.27;;
32639;SDS011;19049;52.524;11.468;2023-01-29T00:47:00;19.03;;;10.80;;
32639;SDS011;19049;52.524;11.468;2023-01-29T00:49:27;22.20;;;12.90;;
32639;SDS011;19049;52.524;11.468;2023-01-29T00:51:54;15.50;;;9.40;;
32639;SDS011;19049;52.524;11.468;2023-01-29T00:54:38;16.10;;;10.07;;
32639;SDS011;19049;52.524;11.468;2023-01-29T00:57:04;18.13;;;10.80;;
32639;SDS011;19049;52.524;11.468;2023-01-29T00:59:30;15.03;;;10.43;;
32639;SDS011;19049;52.524;11.468;2023-01-29T01:01:57;17.47;;;10.30;;
32639;SDS011;19049;52.524;11.468;2023-01-29T01:04:41;14.47;;;9.13;;
32639;SDS011;19049;52.524;11.468;2023-01-29T01:07:07;16.30;;;9.33;;
32639;SDS011;19049;52.524;11.468;2023-01-29T01:09:34;13.87;;;8.97;;
32639;SDS011;19049;52.524;11.468;2023-01-29T01:12:19;12.80;;;8.63;;
32639;SDS011;19049;52.524;11.468;2023-01-29T01:14:45;13.23;;;7.83;;
32639;SDS011;19049;52.524;11.468;2023-01-29T01:17:11;13.30;;;8.37;;
32639;SDS011;19049;52.524;11.468;2023-01-29T01:19:37;13.40;;;8.23;;
32639;SDS011;19049;52.524;11.468;2023-01-29T01:22:03;17.27;;;10.03;;
32639;SDS011;19049;52.524;11.468;2023-01-29T01:24:29;14.53;;;9.30;;
32639;SDS011;19049;52.524;11.468;2023-01-29T01:26:55;16.80;;;9.20;;
32639;SDS011;19049;52.524;11.468;2023-01-29T01:29:21;15.63;;;9.63;;
32639;SDS011;19049;52.524;11.468;2023-01-29T01:31:48;18.20;;;9.77;;
32639;SDS011;19049;52.524;11.468;2023-01-29T01:34:14;17.17;;;10.03;;
32639;SDS011;19049;52.524;11.468;2023-01-29T01:36:40;18.90;;;11.97;;
32639;SDS011;19049;52.524;11.468;2023-01-29T01:39:06;18.50;;;10.90;;
32639;SDS011;19049;52.524;11.468;2023-01-29T01:41:32;16.60;;;10.13;;
32639;SDS011;19049;52.524;11.468;2023-01-29T01:43:59;17.40;;;10.90;;
32639;SDS011;19049;52.524;11.468;2023-01-29T01:46:27;18.53;;;10.13;;
32639;SDS011;19049;52.524;11.468;2023-01-29T01:49:13;15.60;;;9.50;;
32639;SDS011;19049;52.524;11.468;2023-01-29T01:51:43;19.80;;;11.33;;
32639;SDS011;19049;52.524;11.468;2023-01-29T01:54:13;18.33;;;10.27;;
32639;SDS011;19049;52.524;11.468;2023-01-29T01:56:50;16.90;;;10.13;;
32639;SDS011;19049;52.524;11.468;2023-01-29T01:59:19;16.07;;;10.17;;
32639;SDS011;19049;52.524;11.468;2023-01-29T02:01:48;17.67;;;10.40;;
32639;SDS011;19049;52.524;11.468;2023-01-29T02:04:19;14.90;;;9.00;;
32639;SDS011;19049;52.524;11.468;2023-01-29T02:07:05;10.27;;;6.53;;
32639;SDS011;19049;52.524;11.468;2023-01-29T02:09:53;14.07;;;8.37;;
32639;SDS011;19049;52.524;11.468;2023-01-29T02:12:28;12.73;;;8.10;;
32639;SDS011;19049;52.524;11.468;2023-01-29T02:14:55;11.10;;;7.60;;
32639;SDS011;19049;52.524;11.468;2023-01-29T02:17:21;14.53;;;8.67;;
32639;SDS011;19049;52.524;11.468;2023-01-29T02:22:33;18.97;;;10.63;;
32639;SDS011;19049;52.524;11.468;2023-01-29T02:30:47;17.67;;;11.03;;
32639;SDS011;19049;52.524;11.468;2023-01-29T02:33:38;16.40;;;9.90;;
32639;SDS011;19049;52.524;11.468;2023-01-29T02:39:00;19.20;;;12.13;;
32639;SDS011;19049;52.524;11.468;2023-01-29T02:44:20;16.20;;;9.57;;
32639;SDS011;19049;52.524;11.468;2023-01-29T02:47:09;15.00;;;9.20;;
32639;SDS011;19049;52.524;11.468;2023-01-29T02:49:42;16.37;;;9.00;;
32639;SDS011;19049;52.524;11.468;2023-01-29T02:52:20;18.27;;;11.27;;
32639;SDS011;19049;52.524;11.468;2023-01-29T02:54:52;18.77;;;11.50;;
32639;SDS011;19049;52.524;11.468;2023-01-29T02:57:35;16.23;;;9.47;;
32639;SDS011;19049;52.524;11.468;2023-01-29T03:00:08;20.73;;;11.57;;
32639;SDS011;19049;52.524;11.468;2023-01-29T03:05:05;20.00;;;11.70;;
32639;SDS011;19049;52.524;11.468;2023-01-29T03:07:37;21.77;;;12.07;;
32639;SDS011;19049;52.524;11.468;2023-01-29T03:12:45;17.43;;;9.40;;
32639;SDS011;19049;52.524;11.468;2023-01-29T03:15:20;17.53;;;10.87;;
32639;SDS011;19049;52.524;11.468;2023-01-29T03:20:17;20.83;;;12.13;;
32639;SDS011;19049;52.524;11.468;2023-01-29T03:22:52;26.30;;;15.80;;
32639;SDS011;19049;52.524;11.468;2023-01-29T03:25:22;24.93;;;13.50;;
32639;SDS011;19049;52.524;11.468;2023-01-29T03:28:09;20.23;;;12.33;;
32639;SDS011;19049;52.524;11.468;2023-01-29T03:30:59;25.27;;;13.57;;
32639;SDS011;19049;52.524;11.468;2023-01-29T03:33:56;19.63;;;10.90;;
32639;SDS011;19049;52.524;11.468;2023-01-29T03:39:09;24.47;;;13.60;;
32639;SDS011;19049;52.524;11.468;2023-01-29T03:41:37;23.53;;;13.77;;
32639;SDS011;19049;52.524;11.468;2023-01-29T03:51:59;23.30;;;13.10;;
32639;SDS011;19049;52.524;11.468;2023-01-29T03:57:03;22.97;;;12.80;;
32639;SDS011;19049;52.524;11.468;2023-01-29T04:02:41;22.13;;;12.43;;
32639;SDS011;19049;52.524;11.468;2023-01-29T04:05:19;24.13;;;12.50;;
32639;SDS011;19049;52.524;11.468;2023-01-29T04:07:47;22.27;;;12.50;;
32639;SDS011;19049;52.524;11.468;2023-01-29T04:10:18;23.97;;;13.33;;
32639;SDS011;19049;52.524;11.468;2023-01-29T04:12:59;20.57;;;11.93;;
32639;SDS011;19049;52.524;11.468;2023-01-29T04:15:29;19.33;;;11.00;;
32639;SDS011;19049;52.524;11.468;2023-01-29T04:18:00;23.67;;;13.83;;
32639;SDS011;19049;52.524;11.468;2023-01-29T04:20:26;25.17;;;14.00;;
32639;SDS011;19049;52.524;11.468;2023-01-29T04:22:52;24.73;;;13.90;;
32639;SDS011;19049;52.524;11.468;2023-01-29T04:25:20;23.47;;;13.30;;
32639;SDS011;19049;52.524;11.468;2023-01-29T04:30:58;23.60;;;12.53;;
32639;SDS011;19049;52.524;11.468;2023-01-29T04:36:13;25.67;;;13.37;;
32639;SDS011;19049;52.524;11.468;2023-01-29T04:49:33;27.20;;;13.93;;
32639;SDS011;19049;52.524;11.468;2023-01-29T04:52:21;19.43;;;11.40;;
32639;SDS011;19049;52.524;11.468;2023-01-29T04:57:34;22.67;;;12.43;;
32639;SDS011;19049;52.524;11.468;2023-01-29T05:00:16;24.80;;;13.10;;
32639;SDS011;19049;52.524;11.468;2023-01-29T05:02:45;22.93;;;12.80;;
32639;SDS011;19049;52.524;11.468;2023-01-29T05:05:12;23.43;;;13.43;;
32639;SDS011;19049;52.524;11.468;2023-01-29T05:07:40;20.07;;;11.47;;
32639;SDS011;19049;52.524;11.468;2023-01-29T05:10:08;24.03;;;12.60;;
32639;SDS011;19049;52.524;11.468;2023-01-29T05:12:36;19.63;;;11.10;;
32639;SDS011;19049;52.524;11.468;2023-01-29T05:15:05;22.33;;;12.80;;
32639;SDS011;19049;52.524;11.468;2023-01-29T05:17:35;21.13;;;11.33;;
32639;SDS011;19049;52.524;11.468;2023-01-29T05:20:01;23.93;;;13.23;;
32639;SDS011;19049;52.524;11.468;2023-01-29T05:22:27;22.27;;;12.37;;
32639;SDS011;19049;52.524;11.468;2023-01-29T05:24:53;21.27;;;12.00;;
32639;SDS011;19049;52.524;11.468;2023-01-29T05:27:21;21.87;;;12.57;;
32639;SDS011;19049;52.524;11.468;2023-01-29T05:30:11;23.80;;;12.70;;
32639;SDS011;19049;52.524;11.468;2023-01-29T05:32:37;20.13;;;10.93;;
32639;SDS011;19049;52.524;11.468;2023-01-29T05:35:04;21.67;;;11.57;;
32639;SDS011;19049;52.524;11.468;2023-01-29T05:37:30;23.27;;;12.07;;
32639;SDS011;19049;52.524;11.468;2023-01-29T05:39:56;18.93;;;11.13;;
32639;SDS011;19049;52.524;11.468;2023-01-29T05:42:22;19.30;;;11.10;;
32639;SDS011;19049;52.524;11.468;2023-01-29T05:44:48;18.90;;;10.27;;
32639;SDS011;19049;52.524;11.468;2023-01-29T05:47:17;19.53;;;11.73;;
32639;SDS011;19049;52.524;11.468;2023-01-29T05:49:43;21.73;;;13.13;;
32639;SDS011;19049;52.524;11.468;2023-01-29T05:52:09;24.57;;;13.47;;
32639;SDS011;19049;52.524;11.468;2023-01-29T05:54:35;21.30;;;11.73;;
32639;SDS011;19049;52.524;11.468;2023-01-29T05:57:01;25.07;;;13.17;;
32639;SDS011;19049;52.524;11.468;2023-01-29T05:59:27;23.07;;;12.33;;
32639;SDS011;19049;52.524;11.468;2023-01-29T06:01:55;25.50;;;14.00;;
32639;SDS011;19049;52.524;11.468;2023-01-29T06:04:21;24.53;;;13.67;;
32639;SDS011;19049;52.524;11.468;2023-01-29T06:06:47;26.23;;;14.03;;
32639;SDS011;19049;52.524;11.468;2023-01-29T06:09:13;25.47;;;14.87;;
32639;SDS011;19049;52.524;11.468;2023-01-29T06:11:39;20.97;;;12.00;;
32639;SDS011;19049;52.524;11.468;2023-01-29T06:14:05;20.40;;;10.83;;
32639;SDS011;19049;52.524;11.468;2023-01-29T06:16:31;22.30;;;12.50;;
32639;SDS011;19049;52.524;11.468;2023-01-29T06:18:57;20.23;;;11.23;;
32639;SDS011;19049;52.524;11.468;2023-01-29T06:21:23;17.97;;;10.83;;
32639;SDS011;19049;52.524;11.468;2023-01-29T06:23:51;18.03;;;10.83;;
32639;SDS011;19049;52.524;11.468;2023-01-29T06:26:17;14.87;;;9.03;;
32639;SDS011;19049;52.524;11.468;2023-01-29T06:28:43;14.13;;;7.90;;
32639;SDS011;19049;52.524;11.468;2023-01-29T06:31:12;15.90;;;9.70;;
32639;SDS011;19049;52.524;11.468;2023-01-29T06:33:38;18.60;;;11.57;;
32639;SDS011;19049;52.524;11.468;2023-01-29T06:36:04;17.17;;;10.00;;
32639;SDS011;19049;52.524;11.468;2023-01-29T06:38:31;17.83;;;10.43;;
32639;SDS011;19049;52.524;11.468;2023-01-29T06:40:57;21.03;;;10.00;;
32639;SDS011;19049;52.524;11.468;2023-01-29T06:43:23;17.67;;;10.07;;
32639;SDS011;19049;52.524;11.468;2023-01-29T06:45:50;21.83;;;11.63;;
32639;SDS011;19049;52.524;11.468;2023-01-29T06:48:17;19.03;;;10.50;;
32639;SDS011;19049;52.524;11.468;2023-01-29T06:50:44;25.47;;;12.77;;
32639;SDS011;19049;52.524;11.468;2023-01-29T06:53:09;18.87;;;11.10;;
32639;SDS011;19049;52.524;11.468;2023-01-29T06:55:36;17.70;;;10.27;;
32639;SDS011;19049;52.524;11.468;2023-01-29T06:58:08;18.53;;;10.13;;
32639;SDS011;19049;52.524;11.468;2023-01-29T07:00:35;18.03;;;10.87;;
32639;SDS011;19049;52.524;11.468;2023-01-29T07:03:02;15.60;;;8.87;;
32639;SDS011;19049;52.524;11.468;2023-01-29T07:05:28;21.93;;;12.50;;
32639;SDS011;19049;52.524;11.468;2023-01-29T07:07:56;24.53;;;13.13;;
32639;SDS011;19049;52.524;11.468;2023-01-29T07:10:22;18.47;;;10.60;;
32639;SDS011;19049;52.524;11.468;2023-01-29T07:12:48;22.93;;;12.60;;
32639;SDS011;19049;52.524;11.468;2023-01-29T07:15:14;27.97;;;15.27;;
32639;SDS011;19049;52.524;11.468;2023-01-29T07:20:40;25.47;;;14.10;;
32639;SDS011;19049;52.524;11.468;2023-01-29T07:23:08;23.50;;;12.40;;
32639;SDS011;19049;52.524;11.468;2023-01-29T07:25:36;26.53;;;13.67;;
32639;SDS011;19049;52.524;11.468;2023-01-29T07:28:03;23.73;;;12.50;;
32639;SDS011;19049;52.524;11.468;2023-01-29T07:30:29;21.63;;;12.10;;
32639;SDS011;19049;52.524;11.468;2023-01-29T07:32:59;18.37;;;10.57;;
32639;SDS011;19049;52.524;11.468;2023-01-29T07:35:34;21.13;;;11.27;;
32639;SDS011;19049;52.524;11.468;2023-01-29T07:38:02;19.93;;;11.37;;
32639;SDS011;19049;52.524;11.468;2023-01-29T07:40:28;18.80;;;10.80;;
32639;SDS011;19049;52.524;11.468;2023-01-29T07:42:58;18.87;;;11.60;;
32639;SDS011;19049;52.524;11.468;2023-01-29T07:45:24;27.97;;;13.73;;
32639;SDS011;19049;52.524;11.468;2023-01-29T07:47:53;23.87;;;13.27;;
32639;SDS011;19049;52.524;11.468;2023-01-29T07:50:20;19.50;;;11.17;;
32639;SDS011;19049;52.524;11.468;2023-01-29T07:52:47;20.63;;;11.87;;
32639;SDS011;19049;52.524;11.468;2023-01-29T07:55:13;25.40;;;14.17;;
32639;SDS011;19049;52.524;11.468;2023-01-29T07:57:39;24.87;;;13.40;;
32639;SDS011;19049;52.524;11.468;2023-01-29T08:00:05;21.13;;;12.13;;
32639;SDS011;19049;52.524;11.468;2023-01-29T08:02:31;24.30;;;12.73;;
32639;SDS011;19049;52.524;11.468;2023-01-29T08:04:57;23.63;;;12.87;;
32639;SDS011;19049;52.524;11.468;2023-01-29T08:07:23;23.30;;;14.07;;
32639;SDS011;19049;52.524;11.468;2023-01-29T08:09:49;21.30;;;11.87;;
32639;SDS011;19049;52.524;11.468;2023-01-29T08:12:15;18.73;;;11.50;;
32639;SDS011;19049;52.524;11.468;2023-01-29T08:14:41;22.90;;;12.67;;
32639;SDS011;19049;52.524;11.468;2023-01-29T08:17:07;20.73;;;11.27;;
32639;SDS011;19049;52.524;11.468;2023-01-29T08:19:33;19.90;;;10.87;;
32639;SDS011;19049;52.524;11.468;2023-01-29T08:21:59;17.20;;;10.80;;
32639;SDS011;19049;52.524;11.468;2023-01-29T08:24:25;24.77;;;13.03;;
32639;SDS011;19049;52.524;11.468;2023-01-29T08:26:51;17.33;;;10.20;;
32639;SDS011;19049;52.524;11.468;2023-01-29T08:29:17;18.33;;;10.17;;
32639;SDS011;19049;52.524;11.468;2023-01-29T08:31:43;21.83;;;12.37;;
32639;SDS011;19049;52.524;11.468;2023-01-29T08:34:09;17.97;;;10.17;;
32639;SDS011;19049;52.524;11.468;2023-01-29T08:36:35;20.50;;;11.50;;
32639;SDS011;19049;52.524;11.468;2023-01-29T08:39:01;21.67;;;11.47;;
32639;SDS011;19049;52.524;11.468;2023-01-29T08:41:27;20.20;;;10.90;;
32639;SDS011;19049;52.524;11.468;2023-01-29T08:43:53;20.47;;;12.10;;
32639;SDS011;19049;52.524;11.468;2023-01-29T08:46:19;19.97;;;10.97;;
32639;SDS011;19049;52.524;11.468;2023-01-29T08:48:44;17.60;;;10.80;;
32639;SDS011;19049;52.524;11.468;2023-01-29T08:51:10;19.43;;;10.37;;
32639;SDS011;19049;52.524;11.468;2023-01-29T08:53:37;16.63;;;9.50;;
32639;SDS011;19049;52.524;11.468;2023-01-29T08:56:03;19.43;;;10.77;;
32639;SDS011;19049;52.524;11.468;2023-01-29T08:58:29;25.33;;;13.93;;
32639;SDS011;19049;52.524;11.468;2023-01-29T09:00:55;22.30;;;12.57;;
32639;SDS011;19049;52.524;11.468;2023-01-29T09:03:21;15.47;;;9.80;;
32639;SDS011;19049;52.524;11.468;2023-01-29T09:05:47;25.57;;;12.87;;
32639;SDS011;19049;52.524;11.468;2023-01-29T09:08:13;22.80;;;13.13;;
32639;SDS011;19049;52.524;11.468;2023-01-29T09:10:39;28.03;;;15.70;;
32639;SDS011;19049;52.524;11.468;2023-01-29T09:13:05;29.43;;;14.33;;
32639;SDS011;19049;52.524;11.468;2023-01-29T09:15:31;21.77;;;12.27;;
32639;SDS011;19049;52.524;11.468;2023-01-29T09:17:57;33.53;;;19.37;;
32639;SDS011;19049;52.524;11.468;2023-01-29T09:20:27;29.53;;;16.60;;
32639;SDS011;19049;52.524;11.468;2023-01-29T09:22:53;32.57;;;16.93;;
32639;SDS011;19049;52.524;11.468;2023-01-29T09:25:20;29.60;;;16.03;;
32639;SDS011;19049;52.524;11.468;2023-01-29T09:27:46;29.27;;;16.60;;
32639;SDS011;19049;52.524;11.468;2023-01-29T09:30:12;30.43;;;16.70;;
32639;SDS011;19049;52.524;11.468;2023-01-29T09:32:38;31.57;;;16.07;;
32639;SDS011;19049;52.524;11.468;2023-01-29T09:35:04;39.67;;;20.57;;
32639;SDS011;19049;52.524;11.468;2023-01-29T09:37:30;38.70;;;19.73;;
32639;SDS011;19049;52.524;11.468;2023-01-29T09:39:56;31.37;;;18.00;;
32639;SDS011;19049;52.524;11.468;2023-01-29T09:42:30;29.57;;;16.10;;
32639;SDS011;19049;52.524;11.468;2023-01-29T09:47:32;28.80;;;14.73;;
32639;SDS011;19049;52.524;11.468;2023-01-29T09:50:04;28.27;;;15.57;;
32639;SDS011;19049;52.524;11.468;2023-01-29T09:52:40;25.80;;;14.53;;
32639;SDS011;19049;52.524;11.468;2023-01-29T09:55:29;28.10;;;16.10;;
32639;SDS011;19049;52.524;11.468;2023-01-29T09:58:23;26.57;;;14.47;;
32639;SDS011;19049;52.524;11.468;2023-01-29T10:01:16;26.63;;;15.07;;
32639;SDS011;19049;52.524;11.468;2023-01-29T10:04:13;28.60;;;16.13;;
32639;SDS011;19049;52.524;11.468;2023-01-29T10:25:25;92.63;;;42.13;;
32639;SDS011;19049;52.524;11.468;2023-01-29T10:27:53;85.70;;;37.43;;
32639;SDS011;19049;52.524;11.468;2023-01-29T10:32:58;54.00;;;26.97;;
32639;SDS011;19049;52.524;11.468;2023-01-29T10:35:28;45.83;;;22.53;;
32639;SDS011;19049;52.524;11.468;2023-01-29T10:38:01;61.13;;;29.23;;
32639;SDS011;19049;52.524;11.468;2023-01-29T10:40:59;66.03;;;32.47;;
32639;SDS011;19049;52.524;11.468;2023-01-29T10:43:39;43.07;;;24.03;;
32639;SDS011;19049;52.524;11.468;2023-01-29T11:02:15;39.40;;;19.23;;
32639;SDS011;19049;52.524;11.468;2023-01-29T11:04:43;30.93;;;17.47;;
32639;SDS011;19049;52.524;11.468;2023-01-29T11:07:10;37.23;;;20.27;;
32639;SDS011;19049;52.524;11.468;2023-01-29T11:10:10;35.40;;;18.67;;
32639;SDS011;19049;52.524;11.468;2023-01-29T11:12:34;30.33;;;16.80;;
32639;SDS011;19049;52.524;11.468;2023-01-29T11:17:59;34.90;;;17.97;;
32639;SDS011;19049;52.524;11.468;2023-01-29T11:20:35;34.97;;;19.17;;
32639;SDS011;19049;52.524;11.468;2023-01-29T11:23:01;29.30;;;16.63;;
32639;SDS011;19049;52.524;11.468;2023-01-29T11:25:27;31.77;;;15.87;;
32639;SDS011;19049;52.524;11.468;2023-01-29T11:27:57;30.40;;;16.20;;
32639;SDS011;19049;52.524;11.468;2023-01-29T11:30:29;30.07;;;17.47;;
32639;SDS011;19049;52.524;11.468;2023-01-29T11:33:18;30.63;;;16.33;;
32639;SDS011;19049;52.524;11.468;2023-01-29T11:35:44;27.83;;;15.80;;
32639;SDS011;19049;52.524;11.468;2023-01-29T11:38:29;28.47;;;16.17;;
32639;SDS011;19049;52.524;11.468;2023-01-29T11:41:03;28.43;;;15.57;;
32639;SDS011;19049;52.524;11.468;2023-01-29T11:43:30;29.97;;;17.00;;
32639;SDS011;19049;52.524;11.468;2023-01-29T11:46:10;24.17;;;13.93;;
32639;SDS011;19049;52.524;11.468;2023-01-29T11:48:48;30.03;;;15.53;;
32639;SDS011;19049;52.524;11.468;2023-01-29T11:51:22;31.67;;;16.20;;
32639;SDS011;19049;52.524;11.468;2023-01-29T11:54:02;31.80;;;16.43;;
32639;SDS011;19049;52.524;11.468;2023-01-29T11:56:33;30.60;;;16.13;;
32639;SDS011;19049;52.524;11.468;2023-01-29T11:59:05;31.30;;;16.70;;
32639;SDS011;19049;52.524;11.468;2023-01-29T12:01:33;27.90;;;15.13;;
32639;SDS011;19049;52.524;11.468;2023-01-29T12:04:02;29.27;;;15.90;;
32639;SDS011;19049;52.524;11.468;2023-01-29T12:06:40;28.73;;;15.30;;
32639;SDS011;19049;52.524;11.468;2023-01-29T12:09:08;32.90;;;16.40;;
32639;SDS011;19049;52.524;11.468;2023-01-29T12:11:41;29.53;;;15.17;;
32639;SDS011;19049;52.524;11.468;2023-01-29T12:14:26;30.33;;;15.60;;
32639;SDS011;19049;52.524;11.468;2023-01-29T12:17:11;27.17;;;14.87;;
32639;SDS011;19049;52.524;11.468;2023-01-29T12:19:50;27.13;;;15.10;;
32639;SDS011;19049;52.524;11.468;2023-01-29T12:25:17;29.03;;;14.73;;
32639;SDS011;19049;52.524;11.468;2023-01-29T12:27:55;27.47;;;14.70;;
32639;SDS011;19049;52.524;11.468;2023-01-29T12:30:30;26.27;;;14.30;;
32639;SDS011;19049;52.524;11.468;2023-01-29T12:33:23;29.80;;;16.13;;
32639;SDS011;19049;52.524;11.468;2023-01-29T12:36:41;29.27;;;14.23;;
32639;SDS011;19049;52.524;11.468;2023-01-29T12:39:17;24.33;;;12.80;;
32639;SDS011;19049;52.524;11.468;2023-01-29T12:41:45;26.07;;;13.77;;
32639;SDS011;19049;52.524;11.468;2023-01-29T12:44:19;30.20;;;16.27;;
32639;SDS011;19049;52.524;11.468;2023-01-29T12:46:59;28.90;;;14.80;;
32639;SDS011;19049;52.524;11.468;2023-01-29T12:49:28;28.13;;;14.87;;
32639;SDS011;19049;52.524;11.468;2023-01-29T12:52:03;24.87;;;13.37;;
32639;SDS011;19049;52.524;11.468;2023-01-29T12:57:26;29.37;;;15.13;;
32639;SDS011;19049;52.524;11.468;2023-01-29T13:00:05;29.13;;;14.47;;
32639;SDS011;19049;52.524;11.468;2023-01-29T13:08:06;32.03;;;16.17;;
32639;SDS011;19049;52.524;11.468;2023-01-29T13:10:53;25.00;;;15.03;;
32639;SDS011;19049;52.524;11.468;2023-01-29T13:13:25;28.87;;;15.90;;
32639;SDS011;19049;52.524;11.468;2023-01-29T13:15:52;28.93;;;15.07;;
32639;SDS011;19049;52.524;11.468;2023-01-29T13:21:17;25.40;;;15.13;;
32639;SDS011;19049;52.524;11.468;2023-01-29T13:23:47;28.23;;;14.27;;
32639;SDS011;19049;52.524;11.468;2023-01-29T13:26:19;27.30;;;14.43;;
32639;SDS011;19049;52.524;11.468;2023-01-29T13:28:46;21.53;;;12.13;;
32639;SDS011;19049;52.524;11.468;2023-01-29T13:34:04;28.40;;;15.03;;
32639;SDS011;19049;52.524;11.468;2023-01-29T13:36:50;25.03;;;13.70;;
32639;SDS011;19049;52.524;11.468;2023-01-29T13:41:50;26.03;;;13.60;;
32639;SDS011;19049;52.524;11.468;2023-01-29T13:44:20;27.30;;;14.53;;
32639;SDS011;19049;52.524;11.468;2023-01-29T13:46:53;25.87;;;14.13;;
32639;SDS011;19049;52.524;11.468;2023-01-29T13:49:37;24.30;;;12.33;;
32639;SDS011;19049;52.524;11.468;2023-01-29T13:53:08;31.60;;;15.97;;
32639;SDS011;19049;52.524;11.468;2023-01-29T13:55:08;28.43;;;14.67;;
32639;SDS011;19049;52.524;11.468;2023-01-29T14:02:46;25.90;;;13.33;;
32639;SDS011;19049;52.524;11.468;2023-01-29T14:05:39;27.80;;;14.63;;
32639;SDS011;19049;52.524;11.468;2023-01-29T14:10:37;28.60;;;15.13;;
32639;SDS011;19049;52.524;11.468;2023-01-29T14:15:36;28.10;;;15.50;;
32639;SDS011;19049;52.524;11.468;2023-01-29T14:23:37;25.73;;;14.97;;
32639;SDS011;19049;52.524;11.468;2023-01-29T14:26:44;29.40;;;15.03;;
32639;SDS011;19049;52.524;11.468;2023-01-29T14:31:41;25.70;;;14.77;;
32639;SDS011;19049;52.524;11.468;2023-01-29T14:34:18;27.10;;;15.10;;
32639;SDS011;19049;52.524;11.468;2023-01-29T14:36:44;27.07;;;14.73;;
32639;SDS011;19049;52.524;11.468;2023-01-29T14:39:27;30.63;;;15.87;;
32639;SDS011;19049;52.524;11.468;2023-01-29T14:42:00;31.23;;;15.80;;
32639;SDS011;19049;52.524;11.468;2023-01-29T14:47:19;28.57;;;15.13;;
32639;SDS011;19049;52.524;11.468;2023-01-29T14:52:43;28.20;;;15.23;;
32639;SDS011;19049;52.524;11.468;2023-01-29T14:55:17;29.77;;;15.23;;
32639;SDS011;19049;52.524;11.468;2023-01-29T14:57:59;27.57;;;15.57;;
32639;SDS011;19049;52.524;11.468;2023-01-29T15:00:28;23.97;;;14.27;;
32639;SDS011;19049;52.524;11.468;2023-01-29T15:02:57;28.33;;;15.30;;
32639;SDS011;19049;52.524;11.468;2023-01-29T15:05:24;26.47;;;14.57;;
32639;SDS011;19049;52.524;11.468;2023-01-29T15:10:20;24.80;;;14.00;;
32639;SDS011;19049;52.524;11.468;2023-01-29T15:15:50;21.40;;;12.43;;
32639;SDS011;19049;52.524;11.468;2023-01-29T15:18:36;22.37;;;12.57;;
32639;SDS011;19049;52.524;11.468;2023-01-29T15:21:09;27.93;;;14.27;;
32639;SDS011;19049;52.524;11.468;2023-01-29T15:23:36;24.60;;;13.40;;
32639;SDS011;19049;52.524;11.468;2023-01-29T15:26:05;24.17;;;13.63;;
32639;SDS011;19049;52.524;11.468;2023-01-29T15:28:35;23.40;;;13.43;;
32639;SDS011;19049;52.524;11.468;2023-01-29T15:31:10;22.23;;;12.50;;
32639;SDS011;19049;52.524;11.468;2023-01-29T15:33:37;25.43;;;13.03;;
32639;SDS011;19049;52.524;11.468;2023-01-29T15:36:06;23.53;;;13.03;;
32639;SDS011;19049;52.524;11.468;2023-01-29T15:41:42;25.13;;;13.57;;
32639;SDS011;19049;52.524;11.468;2023-01-29T15:44:13;24.27;;;13.07;;
32639;SDS011;19049;52.524;11.468;2023-01-29T15:46:41;22.43;;;12.10;;
32639;SDS011;19049;52.524;11.468;2023-01-29T15:49:10;22.97;;;12.60;;
32639;SDS011;19049;52.524;11.468;2023-01-29T15:51:47;20.47;;;11.63;;
32639;SDS011;19049;52.524;11.468;2023-01-29T15:54:14;19.80;;;12.00;;
32639;SDS011;19049;52.524;11.468;2023-01-29T15:56:48;19.73;;;11.30;;
32639;SDS011;19049;52.524;11.468;2023-01-29T15:59:18;25.70;;;12.90;;
32639;SDS011;19049;52.524;11.468;2023-01-29T16:01:49;23.50;;;13.40;;
32639;SDS011;19049;52.524;11.468;2023-01-29T16:04:17;24.17;;;13.73;;
32639;SDS011;19049;52.524;11.468;2023-01-29T16:06:47;20.67;;;12.10;;
32639;SDS011;19049;52.524;11.468;2023-01-29T16:09:19;25.60;;;14.20;;
32639;SDS011;19049;52.524;11.468;2023-01-29T16:11:49;22.37;;;12.80;;
32639;SDS011;19049;52.524;11.468;2023-01-29T16:14:19;21.77;;;11.33;;
32639;SDS011;19049;52.524;11.468;2023-01-29T16:16:49;22.10;;;12.47;;
32639;SDS011;19049;52.524;11.468;2023-01-29T16:19:20;19.20;;;11.80;;
32639;SDS011;19049;52.524;11.468;2023-01-29T16:22:06;21.87;;;12.23;;
32639;SDS011;19049;52.524;11.468;2023-01-29T16:24:33;20.77;;;11.63;;
32639;SDS011;19049;52.524;11.468;2023-01-29T16:27:02;19.33;;;11.57;;
32639;SDS011;19049;52.524;11.468;2023-01-29T16:29:37;18.27;;;11.03;;
32639;SDS011;19049;52.524;11.468;2023-01-29T16:32:03;22.07;;;12.10;;
32639;SDS011;19049;52.524;11.468;2023-01-29T16:34:31;19.97;;;11.40;;
32639;SDS011;19049;52.524;11.468;2023-01-29T16:36:59;21.60;;;12.00;;
32639;SDS011;19049;52.524;11.468;2023-01-29T16:39:28;20.80;;;12.57;;
32639;SDS011;19049;52.524;11.468;2023-01-29T16:42:03;20.83;;;10.97;;
32639;SDS011;19049;52.524;11.468;2023-01-29T16:44:39;20.73;;;12.57;;
32639;SDS011;19049;52.524;11.468;2023-01-29T16:47:42;19.47;;;11.00;;
32639;SDS011;19049;52.524;11.468;2023-01-29T16:53:02;18.97;;;11.10;;
32639;SDS011;19049;52.524;11.468;2023-01-29T16:55:36;21.47;;;13.07;;
32639;SDS011;19049;52.524;11.468;2023-01-29T16:58:14;19.63;;;11.40;;
32639;SDS011;19049;52.524;11.468;2023-01-29T17:00:48;20.37;;;12.03;;
32639;SDS011;19049;52.524;11.468;2023-01-29T17:03:17;18.90;;;11.23;;
32639;SDS011;19049;52.524;11.468;2023-01-29T17:05:44;19.57;;;11.73;;
32639;SDS011;19049;52.524;11.468;2023-01-29T17:08:13;19.63;;;11.53;;
32639;SDS011;19049;52.524;11.468;2023-01-29T17:10:54;19.60;;;12.03;;
32639;SDS011;19049;52.524;11.468;2023-01-29T17:16:00;18.83;;;11.73;;